sensor_id;sensor_type;location;lat;lon;timestamp;P1;durP1;ratioP1;P2;durP2;ratioP2
37001;SDS011;22913;51.910;8.374;2022-10-31T00:02:43;13.73;;;8.33;;
37001;SDS011;22913;51.910;8.374;2022-10-31T00:05:29;10.33;;;8.20;;
37001;SDS011;22913;51.910;8.374;2022-10-31T00:08:14;12.40;;;8.13;;
37001;SDS011;22913;51.910;8.374;2022-10-31T00:11:02;14.83;;;8.73;;
37001;SDS011;22913;51.910;8.374;2022-10-31T00:13:48;15.07;;;9.30;;
37001;SDS011;22913;51.910;8.374;2022-10-31T00:16:33;14.73;;;8.70;;
37001;SDS011;22913;51.910;8.374;2022-10-31T00:19:19;15.03;;;8.30;;
37001;SDS011;22913;51.910;8.374;2022-10-31T00:22:05;19.73;;;9.13;;
37001;SDS011;22913;51.910;8.374;2022-10-31T00:24:50;14.07;;;9.17;;
37001;SDS011;22913;51.910;8.374;2022-10-31T00:27:38;16.30;;;9.90;;
37001;SDS011;22913;51.910;8.374;2022-10-31T00:30:23;18.43;;;9.97;;
37001;SDS011;22913;51.910;8.374;2022-10-31T00:33:09;15.07;;;10.33;;
37001;SDS011;22913;51.910;8.374;2022-10-31T00:35:55;14.63;;;10.03;;
37001;SDS011;22913;51.910;8.374;2022-10-31T00:38:41;19.13;;;10.67;;
37001;SDS011;22913;51.910;8.374;2022-10-31T00:41:28;14.70;;;9.73;;
37001;SDS011;22913;51.910;8.374;2022-10-31T00:44:15;17.80;;;10.57;;
37001;SDS011;22913;51.910;8.374;2022-10-31T00:47:01;19.13;;;10.30;;
37001;SDS011;22913;51.910;8.374;2022-10-31T00:49:47;20.93;;;9.20;;
37001;SDS011;22913;51.910;8.374;2022-10-31T00:52:32;12.93;;;9.50;;
37001;SDS011;22913;51.910;8.374;2022-10-31T00:55:18;12.90;;;9.53;;
37001;SDS011;22913;51.910;8.374;2022-10-31T00:58:04;16.43;;;9.50;;
37001;SDS011;22913;51.910;8.374;2022-10-31T01:00:51;13.67;;;9.73;;
37001;SDS011;22913;51.910;8.374;2022-10-31T01:03:38;15.40;;;9.20;;
37001;SDS011;22913;51.910;8.374;2022-10-31T01:06:24;22.20;;;9.57;;
37001;SDS011;22913;51.910;8.374;2022-10-31T01:09:10;11.43;;;9.60;;
37001;SDS011;22913;51.910;8.374;2022-10-31T01:11:55;14.23;;;9.60;;
37001;SDS011;22913;51.910;8.374;2022-10-31T01:14:44;14.70;;;9.70;;
37001;SDS011;22913;51.910;8.374;2022-10-31T01:17:32;10.23;;;9.20;;
37001;SDS011;22913;51.910;8.374;2022-10-31T01:20:18;14.20;;;9.53;;
37001;SDS011;22913;51.910;8.374;2022-10-31T01:23:04;15.43;;;9.10;;
37001;SDS011;22913;51.910;8.374;2022-10-31T01:25:50;15.53;;;8.40;;
37001;SDS011;22913;51.910;8.374;2022-10-31T01:28:45;12.50;;;8.97;;
37001;SDS011;22913;51.910;8.374;2022-10-31T01:31:32;13.13;;;8.13;;
37001;SDS011;22913;51.910;8.374;2022-10-31T01:34:21;17.70;;;8.73;;
37001;SDS011;22913;51.910;8.374;2022-10-31T01:37:06;14.90;;;8.73;;
37001;SDS011;22913;51.910;8.374;2022-10-31T01:39:52;14.17;;;8.57;;
37001;SDS011;22913;51.910;8.374;2022-10-31T01:42:38;9.23;;;8.23;;
37001;SDS011;22913;51.910;8.374;2022-10-31T01:45:24;13.20;;;9.50;;
37001;SDS011;22913;51.910;8.374;2022-10-31T01:48:11;11.07;;;8.20;;
37001;SDS011;22913;51.910;8.374;2022-10-31T01:51:00;12.17;;;9.00;;
37001;SDS011;22913;51.910;8.374;2022-10-31T01:53:48;11.67;;;8.10;;
37001;SDS011;22913;51.910;8.374;2022-10-31T01:56:38;10.77;;;8.60;;
37001;SDS011;22913;51.910;8.374;2022-10-31T01:59:29;14.47;;;8.17;;
37001;SDS011;22913;51.910;8.374;2022-10-31T02:02:19;13.83;;;8.10;;
37001;SDS011;22913;51.910;8.374;2022-10-31T02:05:05;13.00;;;8.00;;
37001;SDS011;22913;51.910;8.374;2022-10-31T02:07:57;13.17;;;8.60;;
37001;SDS011;22913;51.910;8.374;2022-10-31T02:10:46;11.23;;;8.03;;
37001;SDS011;22913;51.910;8.374;2022-10-31T02:13:33;10.90;;;8.50;;
37001;SDS011;22913;51.910;8.374;2022-10-31T02:16:19;9.80;;;7.37;;
37001;SDS011;22913;51.910;8.374;2022-10-31T02:19:05;12.17;;;8.43;;
37001;SDS011;22913;51.910;8.374;2022-10-31T02:21:58;12.77;;;8.70;;
37001;SDS011;22913;51.910;8.374;2022-10-31T02:24:56;15.27;;;8.23;;
37001;SDS011;22913;51.910;8.374;2022-10-31T02:28:01;10.80;;;8.10;;
37001;SDS011;22913;51.910;8.374;2022-10-31T02:31:13;12.20;;;8.50;;
37001;SDS011;22913;51.910;8.374;2022-10-31T02:34:10;11.97;;;7.97;;
37001;SDS011;22913;51.910;8.374;2022-10-31T02:37:07;14.40;;;7.70;;
37001;SDS011;22913;51.910;8.374;2022-10-31T02:40:00;11.37;;;8.53;;
37001;SDS011;22913;51.910;8.374;2022-10-31T02:42:56;11.20;;;8.30;;
37001;SDS011;22913;51.910;8.374;2022-10-31T02:45:50;12.97;;;8.57;;
37001;SDS011;22913;51.910;8.374;2022-10-31T02:48:42;11.47;;;7.87;;
37001;SDS011;22913;51.910;8.374;2022-10-31T02:51:30;17.90;;;9.10;;
37001;SDS011;22913;51.910;8.374;2022-10-31T02:54:21;18.27;;;9.03;;
37001;SDS011;22913;51.910;8.374;2022-10-31T02:57:08;11.70;;;8.17;;
37001;SDS011;22913;51.910;8.374;2022-10-31T02:59:55;13.60;;;8.27;;
37001;SDS011;22913;51.910;8.374;2022-10-31T03:02:45;11.67;;;7.60;;
37001;SDS011;22913;51.910;8.374;2022-10-31T03:05:46;12.97;;;8.30;;
37001;SDS011;22913;51.910;8.374;2022-10-31T03:08:41;14.53;;;8.53;;
37001;SDS011;22913;51.910;8.374;2022-10-31T03:11:36;14.13;;;8.53;;
37001;SDS011;22913;51.910;8.374;2022-10-31T03:14:32;12.23;;;8.40;;
37001;SDS011;22913;51.910;8.374;2022-10-31T03:17:26;14.30;;;8.10;;
37001;SDS011;22913;51.910;8.374;2022-10-31T03:20:18;11.80;;;8.13;;
37001;SDS011;22913;51.910;8.374;2022-10-31T03:23:11;11.27;;;8.27;;
37001;SDS011;22913;51.910;8.374;2022-10-31T03:25:59;13.23;;;8.20;;
37001;SDS011;22913;51.910;8.374;2022-10-31T03:28:48;11.43;;;7.73;;
37001;SDS011;22913;51.910;8.374;2022-10-31T03:31:39;13.67;;;8.50;;
37001;SDS011;22913;51.910;8.374;2022-10-31T03:34:28;13.90;;;7.67;;
37001;SDS011;22913;51.910;8.374;2022-10-31T03:37:16;12.23;;;7.60;;
37001;SDS011;22913;51.910;8.374;2022-10-31T03:40:07;18.10;;;8.50;;
37001;SDS011;22913;51.910;8.374;2022-10-31T03:42:56;16.97;;;8.93;;
37001;SDS011;22913;51.910;8.374;2022-10-31T03:45:47;13.40;;;9.50;;
37001;SDS011;22913;51.910;8.374;2022-10-31T03:48:33;11.33;;;8.87;;
37001;SDS011;22913;51.910;8.374;2022-10-31T03:51:20;13.83;;;7.73;;
37001;SDS011;22913;51.910;8.374;2022-10-31T03:54:13;10.53;;;8.17;;
37001;SDS011;22913;51.910;8.374;2022-10-31T03:57:07;11.40;;;8.70;;
37001;SDS011;22913;51.910;8.374;2022-10-31T04:00:00;12.93;;;8.80;;
37001;SDS011;22913;51.910;8.374;2022-10-31T04:02:51;12.33;;;8.67;;
37001;SDS011;22913;51.910;8.374;2022-10-31T04:05:43;11.43;;;8.73;;
37001;SDS011;22913;51.910;8.374;2022-10-31T04:08:32;15.57;;;8.90;;
37001;SDS011;22913;51.910;8.374;2022-10-31T04:11:23;11.00;;;8.30;;
37001;SDS011;22913;51.910;8.374;2022-10-31T04:14:14;15.17;;;8.30;;
37001;SDS011;22913;51.910;8.374;2022-10-31T04:17:00;13.03;;;8.27;;
37001;SDS011;22913;51.910;8.374;2022-10-31T04:19:48;13.63;;;8.30;;
37001;SDS011;22913;51.910;8.374;2022-10-31T04:22:34;10.23;;;8.40;;
37001;SDS011;22913;51.910;8.374;2022-10-31T04:25:19;10.97;;;8.80;;
37001;SDS011;22913;51.910;8.374;2022-10-31T04:28:05;13.10;;;8.03;;
37001;SDS011;22913;51.910;8.374;2022-10-31T04:30:53;10.23;;;8.23;;
37001;SDS011;22913;51.910;8.374;2022-10-31T04:33:39;10.47;;;8.00;;
37001;SDS011;22913;51.910;8.374;2022-10-31T04:36:25;16.20;;;8.13;;
37001;SDS011;22913;51.910;8.374;2022-10-31T04:39:11;12.73;;;8.97;;
37001;SDS011;22913;51.910;8.374;2022-10-31T04:41:57;13.00;;;8.63;;
37001;SDS011;22913;51.910;8.374;2022-10-31T04:44:42;14.00;;;8.40;;
37001;SDS011;22913;51.910;8.374;2022-10-31T04:47:31;16.13;;;8.70;;
37001;SDS011;22913;51.910;8.374;2022-10-31T04:50:17;13.30;;;8.60;;
37001;SDS011;22913;51.910;8.374;2022-10-31T04:53:04;11.27;;;8.83;;
37001;SDS011;22913;51.910;8.374;2022-10-31T04:55:49;13.57;;;8.67;;
37001;SDS011;22913;51.910;8.374;2022-10-31T04:58:36;15.90;;;8.80;;
37001;SDS011;22913;51.910;8.374;2022-10-31T05:01:22;12.73;;;8.73;;
37001;SDS011;22913;51.910;8.374;2022-10-31T05:04:09;14.10;;;8.90;;
37001;SDS011;22913;51.910;8.374;2022-10-31T05:06:55;16.73;;;8.90;;
37001;SDS011;22913;51.910;8.374;2022-10-31T05:09:41;16.80;;;8.53;;
37001;SDS011;22913;51.910;8.374;2022-10-31T05:12:27;13.17;;;9.20;;
37001;SDS011;22913;51.910;8.374;2022-10-31T05:15:13;10.63;;;8.73;;
37001;SDS011;22913;51.910;8.374;2022-10-31T05:17:59;9.23;;;8.33;;
37001;SDS011;22913;51.910;8.374;2022-10-31T05:20:46;10.50;;;8.30;;
37001;SDS011;22913;51.910;8.374;2022-10-31T05:23:32;14.80;;;9.37;;
37001;SDS011;22913;51.910;8.374;2022-10-31T05:26:18;11.43;;;9.10;;
37001;SDS011;22913;51.910;8.374;2022-10-31T05:29:04;14.90;;;9.70;;
37001;SDS011;22913;51.910;8.374;2022-10-31T05:31:49;12.50;;;9.13;;
37001;SDS011;22913;51.910;8.374;2022-10-31T05:34:35;13.30;;;9.20;;
37001;SDS011;22913;51.910;8.374;2022-10-31T05:37:23;10.70;;;8.47;;
37001;SDS011;22913;51.910;8.374;2022-10-31T05:40:09;12.03;;;8.90;;
37001;SDS011;22913;51.910;8.374;2022-10-31T05:42:56;14.63;;;8.10;;
37001;SDS011;22913;51.910;8.374;2022-10-31T05:45:42;10.10;;;8.10;;
37001;SDS011;22913;51.910;8.374;2022-10-31T05:48:28;10.87;;;8.60;;
37001;SDS011;22913;51.910;8.374;2022-10-31T05:51:14;13.97;;;8.53;;
37001;SDS011;22913;51.910;8.374;2022-10-31T05:54:01;11.40;;;8.77;;
37001;SDS011;22913;51.910;8.374;2022-10-31T05:56:47;14.77;;;9.27;;
37001;SDS011;22913;51.910;8.374;2022-10-31T05:59:33;16.07;;;9.33;;
37001;SDS011;22913;51.910;8.374;2022-10-31T06:02:19;17.80;;;9.07;;
37001;SDS011;22913;51.910;8.374;2022-10-31T06:05:05;10.67;;;8.80;;
37001;SDS011;22913;51.910;8.374;2022-10-31T06:07:52;14.30;;;9.83;;
37001;SDS011;22913;51.910;8.374;2022-10-31T06:10:39;16.17;;;9.33;;
37001;SDS011;22913;51.910;8.374;2022-10-31T06:13:25;13.30;;;9.20;;
37001;SDS011;22913;51.910;8.374;2022-10-31T06:16:11;14.37;;;8.77;;
37001;SDS011;22913;51.910;8.374;2022-10-31T06:18:57;15.63;;;8.83;;
37001;SDS011;22913;51.910;8.374;2022-10-31T06:21:43;12.03;;;9.07;;
37001;SDS011;22913;51.910;8.374;2022-10-31T06:24:29;12.17;;;9.27;;
37001;SDS011;22913;51.910;8.374;2022-10-31T06:27:16;13.70;;;9.23;;
37001;SDS011;22913;51.910;8.374;2022-10-31T06:30:01;13.13;;;8.93;;
37001;SDS011;22913;51.910;8.374;2022-10-31T06:32:47;14.77;;;9.53;;
37001;SDS011;22913;51.910;8.374;2022-10-31T06:35:33;13.40;;;9.27;;
37001;SDS011;22913;51.910;8.374;2022-10-31T06:38:18;13.23;;;9.30;;
37001;SDS011;22913;51.910;8.374;2022-10-31T06:41:04;11.03;;;8.93;;
37001;SDS011;22913;51.910;8.374;2022-10-31T06:43:52;15.67;;;9.33;;
37001;SDS011;22913;51.910;8.374;2022-10-31T06:46:38;12.20;;;8.93;;
37001;SDS011;22913;51.910;8.374;2022-10-31T06:49:24;12.07;;;9.57;;
37001;SDS011;22913;51.910;8.374;2022-10-31T06:52:09;12.30;;;8.30;;
37001;SDS011;22913;51.910;8.374;2022-10-31T06:54:55;9.50;;;8.23;;
37001;SDS011;22913;51.910;8.374;2022-10-31T07:00:36;15.80;;;9.10;;
37001;SDS011;22913;51.910;8.374;2022-10-31T07:03:21;15.37;;;9.87;;
37001;SDS011;22913;51.910;8.374;2022-10-31T07:06:07;16.47;;;10.10;;
37001;SDS011;22913;51.910;8.374;2022-10-31T07:08:52;14.23;;;9.27;;
37001;SDS011;22913;51.910;8.374;2022-10-31T07:11:38;14.83;;;10.27;;
37001;SDS011;22913;51.910;8.374;2022-10-31T07:14:24;15.77;;;10.67;;
37001;SDS011;22913;51.910;8.374;2022-10-31T07:17:11;15.80;;;10.17;;
37001;SDS011;22913;51.910;8.374;2022-10-31T07:19:56;15.83;;;10.07;;
37001;SDS011;22913;51.910;8.374;2022-10-31T07:22:42;17.40;;;10.43;;
37001;SDS011;22913;51.910;8.374;2022-10-31T07:25:28;19.77;;;11.13;;
37001;SDS011;22913;51.910;8.374;2022-10-31T07:28:14;14.17;;;10.37;;
37001;SDS011;22913;51.910;8.374;2022-10-31T07:31:00;15.17;;;10.13;;
37001;SDS011;22913;51.910;8.374;2022-10-31T07:33:47;18.37;;;10.70;;
37001;SDS011;22913;51.910;8.374;2022-10-31T07:36:32;13.73;;;11.17;;
37001;SDS011;22913;51.910;8.374;2022-10-31T07:39:18;17.30;;;10.87;;
37001;SDS011;22913;51.910;8.374;2022-10-31T07:42:04;16.00;;;11.47;;
37001;SDS011;22913;51.910;8.374;2022-10-31T07:44:50;18.33;;;11.37;;
37001;SDS011;22913;51.910;8.374;2022-10-31T07:47:38;21.37;;;11.23;;
37001;SDS011;22913;51.910;8.374;2022-10-31T07:50:26;20.37;;;12.40;;
37001;SDS011;22913;51.910;8.374;2022-10-31T07:53:14;17.03;;;11.13;;
37001;SDS011;22913;51.910;8.374;2022-10-31T07:56:00;13.13;;;11.00;;
37001;SDS011;22913;51.910;8.374;2022-10-31T07:58:46;21.03;;;11.60;;
37001;SDS011;22913;51.910;8.374;2022-10-31T08:01:32;14.40;;;12.33;;
37001;SDS011;22913;51.910;8.374;2022-10-31T08:04:17;17.97;;;11.53;;
37001;SDS011;22913;51.910;8.374;2022-10-31T08:07:07;13.50;;;11.60;;
37001;SDS011;22913;51.910;8.374;2022-10-31T08:09:53;16.13;;;12.00;;
37001;SDS011;22913;51.910;8.374;2022-10-31T08:12:40;17.40;;;12.40;;
37001;SDS011;22913;51.910;8.374;2022-10-31T08:15:26;15.37;;;12.30;;
37001;SDS011;22913;51.910;8.374;2022-10-31T08:18:13;18.17;;;13.00;;
37001;SDS011;22913;51.910;8.374;2022-10-31T08:20:59;18.27;;;12.13;;
37001;SDS011;22913;51.910;8.374;2022-10-31T08:23:46;22.30;;;12.57;;
37001;SDS011;22913;51.910;8.374;2022-10-31T08:26:32;17.40;;;12.70;;
37001;SDS011;22913;51.910;8.374;2022-10-31T08:29:17;20.43;;;13.40;;
37001;SDS011;22913;51.910;8.374;2022-10-31T08:32:03;17.40;;;12.93;;
37001;SDS011;22913;51.910;8.374;2022-10-31T08:34:49;23.93;;;13.90;;
37001;SDS011;22913;51.910;8.374;2022-10-31T08:37:35;23.93;;;13.83;;
37001;SDS011;22913;51.910;8.374;2022-10-31T08:40:22;19.43;;;14.50;;
37001;SDS011;22913;51.910;8.374;2022-10-31T08:43:10;20.30;;;14.37;;
37001;SDS011;22913;51.910;8.374;2022-10-31T08:45:57;22.23;;;14.77;;
37001;SDS011;22913;51.910;8.374;2022-10-31T08:48:42;18.90;;;14.40;;
37001;SDS011;22913;51.910;8.374;2022-10-31T08:51:28;19.20;;;15.10;;
37001;SDS011;22913;51.910;8.374;2022-10-31T08:54:14;20.90;;;14.53;;
37001;SDS011;22913;51.910;8.374;2022-10-31T08:57:01;19.40;;;14.57;;
37001;SDS011;22913;51.910;8.374;2022-10-31T08:59:46;18.70;;;14.60;;
37001;SDS011;22913;51.910;8.374;2022-10-31T09:02:32;23.90;;;15.57;;
37001;SDS011;22913;51.910;8.374;2022-10-31T09:05:17;20.77;;;14.67;;
37001;SDS011;22913;51.910;8.374;2022-10-31T09:08:04;21.97;;;14.80;;
37001;SDS011;22913;51.910;8.374;2022-10-31T09:10:51;25.43;;;15.67;;
37001;SDS011;22913;51.910;8.374;2022-10-31T09:13:42;24.80;;;15.83;;
37001;SDS011;22913;51.910;8.374;2022-10-31T09:16:27;20.90;;;16.00;;
37001;SDS011;22913;51.910;8.374;2022-10-31T09:19:13;22.77;;;16.33;;
37001;SDS011;22913;51.910;8.374;2022-10-31T09:21:58;19.67;;;16.40;;
37001;SDS011;22913;51.910;8.374;2022-10-31T09:24:44;25.03;;;16.20;;
37001;SDS011;22913;51.910;8.374;2022-10-31T09:27:30;25.30;;;17.63;;
37001;SDS011;22913;51.910;8.374;2022-10-31T09:30:16;20.67;;;16.00;;
37001;SDS011;22913;51.910;8.374;2022-10-31T09:33:02;22.00;;;16.20;;
37001;SDS011;22913;51.910;8.374;2022-10-31T09:35:49;20.97;;;16.33;;
37001;SDS011;22913;51.910;8.374;2022-10-31T09:38:35;22.73;;;16.00;;
37001;SDS011;22913;51.910;8.374;2022-10-31T09:41:22;23.43;;;16.83;;
37001;SDS011;22913;51.910;8.374;2022-10-31T09:44:17;22.37;;;17.43;;
37001;SDS011;22913;51.910;8.374;2022-10-31T09:47:11;28.20;;;18.40;;
37001;SDS011;22913;51.910;8.374;2022-10-31T09:50:13;22.47;;;17.13;;
37001;SDS011;22913;51.910;8.374;2022-10-31T09:53:03;24.03;;;16.53;;
37001;SDS011;22913;51.910;8.374;2022-10-31T09:55:54;27.87;;;19.13;;
37001;SDS011;22913;51.910;8.374;2022-10-31T09:58:41;24.40;;;18.33;;
37001;SDS011;22913;51.910;8.374;2022-10-31T10:01:30;21.87;;;18.27;;
37001;SDS011;22913;51.910;8.374;2022-10-31T10:07:32;24.20;;;18.77;;
37001;SDS011;22913;51.910;8.374;2022-10-31T10:10:26;22.77;;;18.53;;
37001;SDS011;22913;51.910;8.374;2022-10-31T10:13:21;24.37;;;19.17;;
37001;SDS011;22913;51.910;8.374;2022-10-31T10:16:25;24.57;;;18.73;;
37001;SDS011;22913;51.910;8.374;2022-10-31T10:19:21;24.43;;;17.50;;
37001;SDS011;22913;51.910;8.374;2022-10-31T10:22:20;19.90;;;17.77;;
37001;SDS011;22913;51.910;8.374;2022-10-31T10:25:14;22.63;;;18.53;;
37001;SDS011;22913;51.910;8.374;2022-10-31T10:28:07;19.83;;;16.93;;
37001;SDS011;22913;51.910;8.374;2022-10-31T10:31:02;22.07;;;18.33;;
37001;SDS011;22913;51.910;8.374;2022-10-31T10:33:57;22.07;;;17.90;;
37001;SDS011;22913;51.910;8.374;2022-10-31T10:36:47;21.73;;;16.97;;
37001;SDS011;22913;51.910;8.374;2022-10-31T10:39:38;22.20;;;16.63;;
37001;SDS011;22913;51.910;8.374;2022-10-31T10:42:28;18.87;;;16.07;;
37001;SDS011;22913;51.910;8.374;2022-10-31T10:45:31;22.73;;;17.73;;
37001;SDS011;22913;51.910;8.374;2022-10-31T10:48:37;23.17;;;16.23;;
37001;SDS011;22913;51.910;8.374;2022-10-31T10:51:31;26.73;;;16.73;;
37001;SDS011;22913;51.910;8.374;2022-10-31T10:54:37;18.13;;;16.00;;
37001;SDS011;22913;51.910;8.374;2022-10-31T10:57:32;17.03;;;14.97;;
37001;SDS011;22913;51.910;8.374;2022-10-31T11:00:29;18.20;;;14.50;;
37001;SDS011;22913;51.910;8.374;2022-10-31T11:03:17;18.77;;;14.37;;
37001;SDS011;22913;51.910;8.374;2022-10-31T11:06:03;19.43;;;14.83;;
37001;SDS011;22913;51.910;8.374;2022-10-31T11:08:49;16.67;;;13.03;;
37001;SDS011;22913;51.910;8.374;2022-10-31T11:11:36;22.00;;;14.77;;
37001;SDS011;22913;51.910;8.374;2022-10-31T11:14:23;17.87;;;14.63;;
37001;SDS011;22913;51.910;8.374;2022-10-31T11:17:16;18.37;;;14.50;;
37001;SDS011;22913;51.910;8.374;2022-10-31T11:20:26;17.07;;;14.43;;
37001;SDS011;22913;51.910;8.374;2022-10-31T11:23:16;18.60;;;15.90;;
37001;SDS011;22913;51.910;8.374;2022-10-31T11:26:04;18.93;;;15.80;;
37001;SDS011;22913;51.910;8.374;2022-10-31T11:28:57;16.70;;;15.03;;
37001;SDS011;22913;51.910;8.374;2022-10-31T11:31:44;20.60;;;16.03;;
37001;SDS011;22913;51.910;8.374;2022-10-31T11:34:36;23.13;;;18.30;;
37001;SDS011;22913;51.910;8.374;2022-10-31T11:37:27;22.23;;;18.13;;
37001;SDS011;22913;51.910;8.374;2022-10-31T11:40:16;28.03;;;19.07;;
37001;SDS011;22913;51.910;8.374;2022-10-31T11:43:04;24.10;;;18.23;;
37001;SDS011;22913;51.910;8.374;2022-10-31T11:45:51;28.17;;;19.57;;
37001;SDS011;22913;51.910;8.374;2022-10-31T11:48:36;20.87;;;18.77;;
37001;SDS011;22913;51.910;8.374;2022-10-31T11:51:23;25.00;;;19.07;;
37001;SDS011;22913;51.910;8.374;2022-10-31T11:54:17;27.30;;;19.20;;
37001;SDS011;22913;51.910;8.374;2022-10-31T11:57:19;20.90;;;18.73;;
37001;SDS011;22913;51.910;8.374;2022-10-31T12:00:19;26.63;;;19.50;;
37001;SDS011;22913;51.910;8.374;2022-10-31T12:03:12;24.10;;;18.57;;
37001;SDS011;22913;51.910;8.374;2022-10-31T12:06:03;22.83;;;19.07;;
37001;SDS011;22913;51.910;8.374;2022-10-31T12:08:54;24.47;;;17.70;;
37001;SDS011;22913;51.910;8.374;2022-10-31T12:11:42;21.97;;;19.43;;
37001;SDS011;22913;51.910;8.374;2022-10-31T12:14:39;21.87;;;18.03;;
37001;SDS011;22913;51.910;8.374;2022-10-31T12:17:35;24.70;;;17.33;;
37001;SDS011;22913;51.910;8.374;2022-10-31T12:20:28;19.63;;;16.53;;
37001;SDS011;22913;51.910;8.374;2022-10-31T12:23:24;22.40;;;17.37;;
37001;SDS011;22913;51.910;8.374;2022-10-31T12:26:18;19.63;;;15.03;;
37001;SDS011;22913;51.910;8.374;2022-10-31T12:29:13;18.47;;;16.10;;
37001;SDS011;22913;51.910;8.374;2022-10-31T12:32:15;21.50;;;15.83;;
37001;SDS011;22913;51.910;8.374;2022-10-31T12:35:29;18.27;;;15.90;;
37001;SDS011;22913;51.910;8.374;2022-10-31T12:38:36;19.60;;;16.00;;
37001;SDS011;22913;51.910;8.374;2022-10-31T12:41:40;19.90;;;15.40;;
37001;SDS011;22913;51.910;8.374;2022-10-31T12:44:39;21.77;;;15.80;;
37001;SDS011;22913;51.910;8.374;2022-10-31T12:47:38;17.70;;;15.80;;
37001;SDS011;22913;51.910;8.374;2022-10-31T12:50:39;19.10;;;15.13;;
37001;SDS011;22913;51.910;8.374;2022-10-31T12:53:40;18.33;;;15.97;;
37001;SDS011;22913;51.910;8.374;2022-10-31T12:56:48;19.00;;;16.13;;
37001;SDS011;22913;51.910;8.374;2022-10-31T12:59:48;18.97;;;16.17;;
37001;SDS011;22913;51.910;8.374;2022-10-31T13:02:38;16.87;;;14.90;;
37001;SDS011;22913;51.910;8.374;2022-10-31T13:05:29;18.73;;;15.50;;
37001;SDS011;22913;51.910;8.374;2022-10-31T13:08:18;17.70;;;14.30;;
37001;SDS011;22913;51.910;8.374;2022-10-31T13:11:08;17.50;;;14.17;;
37001;SDS011;22913;51.910;8.374;2022-10-31T13:13:58;19.60;;;14.07;;
37001;SDS011;22913;51.910;8.374;2022-10-31T13:16:49;20.40;;;13.50;;
37001;SDS011;22913;51.910;8.374;2022-10-31T13:19:36;14.27;;;12.80;;
37001;SDS011;22913;51.910;8.374;2022-10-31T13:22:26;13.23;;;10.33;;
37001;SDS011;22913;51.910;8.374;2022-10-31T13:25:17;16.23;;;10.00;;
37001;SDS011;22913;51.910;8.374;2022-10-31T13:28:09;13.47;;;9.67;;
37001;SDS011;22913;51.910;8.374;2022-10-31T13:31:08;13.37;;;9.37;;
37001;SDS011;22913;51.910;8.374;2022-10-31T13:33:54;12.60;;;8.97;;
37001;SDS011;22913;51.910;8.374;2022-10-31T13:36:43;12.97;;;9.37;;
37001;SDS011;22913;51.910;8.374;2022-10-31T13:39:39;11.03;;;8.47;;
37001;SDS011;22913;51.910;8.374;2022-10-31T13:42:37;9.27;;;7.87;;
37001;SDS011;22913;51.910;8.374;2022-10-31T13:45:30;12.77;;;7.60;;
37001;SDS011;22913;51.910;8.374;2022-10-31T13:48:33;13.03;;;8.00;;
37001;SDS011;22913;51.910;8.374;2022-10-31T13:51:25;13.17;;;7.50;;
37001;SDS011;22913;51.910;8.374;2022-10-31T13:54:20;11.37;;;7.73;;
37001;SDS011;22913;51.910;8.374;2022-10-31T13:57:07;10.77;;;7.40;;
37001;SDS011;22913;51.910;8.374;2022-10-31T14:00:04;8.63;;;6.77;;
37001;SDS011;22913;51.910;8.374;2022-10-31T14:02:52;9.70;;;6.80;;
37001;SDS011;22913;51.910;8.374;2022-10-31T14:05:40;7.83;;;6.43;;
37001;SDS011;22913;51.910;8.374;2022-10-31T14:08:27;12.50;;;7.20;;
37001;SDS011;22913;51.910;8.374;2022-10-31T14:11:17;10.60;;;7.93;;
37001;SDS011;22913;51.910;8.374;2022-10-31T14:14:08;12.37;;;7.07;;
37001;SDS011;22913;51.910;8.374;2022-10-31T14:16:58;10.13;;;8.13;;
37001;SDS011;22913;51.910;8.374;2022-10-31T14:19:55;13.53;;;8.00;;
37001;SDS011;22913;51.910;8.374;2022-10-31T14:22:45;16.80;;;7.03;;
37001;SDS011;22913;51.910;8.374;2022-10-31T14:25:31;10.33;;;7.60;;
37001;SDS011;22913;51.910;8.374;2022-10-31T14:28:19;10.63;;;7.97;;
37001;SDS011;22913;51.910;8.374;2022-10-31T14:31:21;13.07;;;7.83;;
37001;SDS011;22913;51.910;8.374;2022-10-31T14:34:23;10.87;;;7.90;;
37001;SDS011;22913;51.910;8.374;2022-10-31T14:37:32;9.67;;;7.97;;
37001;SDS011;22913;51.910;8.374;2022-10-31T14:40:35;10.90;;;7.57;;
37001;SDS011;22913;51.910;8.374;2022-10-31T14:43:43;14.60;;;8.20;;
37001;SDS011;22913;51.910;8.374;2022-10-31T14:46:41;13.97;;;8.73;;
37001;SDS011;22913;51.910;8.374;2022-10-31T14:49:40;13.77;;;8.57;;
37001;SDS011;22913;51.910;8.374;2022-10-31T14:52:40;12.93;;;8.23;;
37001;SDS011;22913;51.910;8.374;2022-10-31T14:55:28;12.10;;;8.80;;
37001;SDS011;22913;51.910;8.374;2022-10-31T14:58:15;13.00;;;9.00;;
37001;SDS011;22913;51.910;8.374;2022-10-31T15:01:04;11.87;;;9.17;;
37001;SDS011;22913;51.910;8.374;2022-10-31T15:03:50;17.43;;;8.70;;
37001;SDS011;22913;51.910;8.374;2022-10-31T15:06:38;17.00;;;8.90;;
37001;SDS011;22913;51.910;8.374;2022-10-31T15:09:29;13.73;;;9.53;;
37001;SDS011;22913;51.910;8.374;2022-10-31T15:12:21;15.60;;;9.60;;
37001;SDS011;22913;51.910;8.374;2022-10-31T15:15:12;14.60;;;9.73;;
37001;SDS011;22913;51.910;8.374;2022-10-31T15:17:59;15.10;;;9.93;;
37001;SDS011;22913;51.910;8.374;2022-10-31T15:20:45;16.00;;;10.43;;
37001;SDS011;22913;51.910;8.374;2022-10-31T15:23:33;15.57;;;10.27;;
37001;SDS011;22913;51.910;8.374;2022-10-31T15:26:18;17.47;;;10.50;;
37001;SDS011;22913;51.910;8.374;2022-10-31T15:29:10;15.13;;;11.00;;
37001;SDS011;22913;51.910;8.374;2022-10-31T15:31:58;17.83;;;12.13;;
37001;SDS011;22913;51.910;8.374;2022-10-31T15:34:45;17.60;;;11.70;;
37001;SDS011;22913;51.910;8.374;2022-10-31T15:37:30;16.13;;;12.47;;
37001;SDS011;22913;51.910;8.374;2022-10-31T15:40:18;17.90;;;11.73;;
37001;SDS011;22913;51.910;8.374;2022-10-31T15:43:05;15.33;;;12.17;;
37001;SDS011;22913;51.910;8.374;2022-10-31T15:45:51;15.67;;;11.53;;
37001;SDS011;22913;51.910;8.374;2022-10-31T15:48:37;14.60;;;11.63;;
37001;SDS011;22913;51.910;8.374;2022-10-31T15:51:28;15.23;;;11.87;;
37001;SDS011;22913;51.910;8.374;2022-10-31T15:54:16;15.57;;;11.87;;
37001;SDS011;22913;51.910;8.374;2022-10-31T15:57:04;19.80;;;11.40;;
37001;SDS011;22913;51.910;8.374;2022-10-31T15:59:55;17.87;;;12.87;;
37001;SDS011;22913;51.910;8.374;2022-10-31T16:02:41;15.00;;;11.83;;
37001;SDS011;22913;51.910;8.374;2022-10-31T16:05:32;19.57;;;12.30;;
37001;SDS011;22913;51.910;8.374;2022-10-31T16:08:25;18.33;;;12.70;;
37001;SDS011;22913;51.910;8.374;2022-10-31T16:11:22;20.33;;;14.27;;
37001;SDS011;22913;51.910;8.374;2022-10-31T16:14:16;22.40;;;13.70;;
37001;SDS011;22913;51.910;8.374;2022-10-31T16:17:05;14.33;;;12.60;;
37001;SDS011;22913;51.910;8.374;2022-10-31T16:19:58;21.10;;;14.27;;
37001;SDS011;22913;51.910;8.374;2022-10-31T16:22:47;22.03;;;14.33;;
37001;SDS011;22913;51.910;8.374;2022-10-31T16:25:35;20.27;;;14.10;;
37001;SDS011;22913;51.910;8.374;2022-10-31T16:28:23;21.57;;;13.70;;
37001;SDS011;22913;51.910;8.374;2022-10-31T16:31:13;19.27;;;12.67;;
37001;SDS011;22913;51.910;8.374;2022-10-31T16:34:10;20.33;;;12.53;;
37001;SDS011;22913;51.910;8.374;2022-10-31T16:36:58;13.87;;;11.23;;
37001;SDS011;22913;51.910;8.374;2022-10-31T16:39:47;15.47;;;11.23;;
37001;SDS011;22913;51.910;8.374;2022-10-31T16:42:33;17.33;;;11.40;;
37001;SDS011;22913;51.910;8.374;2022-10-31T16:45:19;15.90;;;10.37;;
37001;SDS011;22913;51.910;8.374;2022-10-31T16:48:09;17.03;;;10.03;;